sensor_id;sensor_type;location;lat;lon;timestamp;temperature;humidity
12025;DHT22;6073;53.230;10.444;2022-12-26T00:01:09;6.80;99.90
12025;DHT22;6073;53.230;10.444;2022-12-26T00:03:35;6.90;99.90
12025;DHT22;6073;53.230;10.444;2022-12-26T00:06:00;6.90;99.90
12025;DHT22;6073;53.230;10.444;2022-12-26T00:08:26;6.90;99.90
12025;DHT22;6073;53.230;10.444;2022-12-26T00:10:52;6.90;99.90
12025;DHT22;6073;53.230;10.444;2022-12-26T00:13:17;6.90;99.90
12025;DHT22;6073;53.230;10.444;2022-12-26T00:15:43;7.00;99.90
12025;DHT22;6073;53.230;10.444;2022-12-26T00:18:08;7.00;99.90
12025;DHT22;6073;53.230;10.444;2022-12-26T00:20:34;7.00;99.90
12025;DHT22;6073;53.230;10.444;2022-12-26T00:23:00;7.00;99.90
12025;DHT22;6073;53.230;10.444;2022-12-26T00:25:25;7.00;99.90
12025;DHT22;6073;53.230;10.444;2022-12-26T00:27:51;7.00;99.90
12025;DHT22;6073;53.230;10.444;2022-12-26T00:30:17;7.10;99.90
12025;DHT22;6073;53.230;10.444;2022-12-26T00:32:43;7.00;99.90
12025;DHT22;6073;53.230;10.444;2022-12-26T00:35:08;7.00;99.90
12025;DHT22;6073;53.230;10.444;2022-12-26T00:37:34;7.00;99.90
12025;DHT22;6073;53.230;10.444;2022-12-26T00:39:59;7.00;99.90
12025;DHT22;6073;53.230;10.444;2022-12-26T00:42:25;7.00;99.90
12025;DHT22;6073;53.230;10.444;2022-12-26T00:44:51;7.10;99.90
12025;DHT22;6073;53.230;10.444;2022-12-26T00:47:16;7.10;99.90
12025;DHT22;6073;53.230;10.444;2022-12-26T00:49:42;7.10;99.90
12025;DHT22;6073;53.230;10.444;2022-12-26T00:52:07;7.20;99.90
12025;DHT22;6073;53.230;10.444;2022-12-26T00:54:33;7.20;99.90
12025;DHT22;6073;53.230;10.444;2022-12-26T00:56:58;7.20;99.90
12025;DHT22;6073;53.230;10.444;2022-12-26T00:59:24;7.30;99.90
12025;DHT22;6073;53.230;10.444;2022-12-26T01:01:49;7.20;99.90
12025;DHT22;6073;53.230;10.444;2022-12-26T01:04:15;7.20;99.90
12025;DHT22;6073;53.230;10.444;2022-12-26T01:06:41;7.20;99.90
12025;DHT22;6073;53.230;10.444;2022-12-26T01:09:06;7.20;99.90
12025;DHT22;6073;53.230;10.444;2022-12-26T01:11:32;7.20;99.90
12025;DHT22;6073;53.230;10.444;2022-12-26T01:14:12;7.30;99.90
12025;DHT22;6073;53.230;10.444;2022-12-26T01:16:39;7.20;99.90
12025;DHT22;6073;53.230;10.444;2022-12-26T01:19:05;7.30;99.90
12025;DHT22;6073;53.230;10.444;2022-12-26T01:21:31;7.30;99.90
12025;DHT22;6073;53.230;10.444;2022-12-26T01:23:56;7.30;99.90
12025;DHT22;6073;53.230;10.444;2022-12-26T01:26:22;7.30;99.90
12025;DHT22;6073;53.230;10.444;2022-12-26T01:28:48;7.30;99.90
12025;DHT22;6073;53.230;10.444;2022-12-26T01:31:14;7.30;99.90
12025;DHT22;6073;53.230;10.444;2022-12-26T01:33:40;7.30;99.90
12025;DHT22;6073;53.230;10.444;2022-12-26T01:36:05;7.30;99.90
12025;DHT22;6073;53.230;10.444;2022-12-26T01:38:31;7.30;99.90
12025;DHT22;6073;53.230;10.444;2022-12-26T01:40:56;7.40;99.90
12025;DHT22;6073;53.230;10.444;2022-12-26T01:44:01;7.40;99.90
12025;DHT22;6073;53.230;10.444;2022-12-26T01:46:39;7.40;99.90
12025;DHT22;6073;53.230;10.444;2022-12-26T01:49:19;7.30;99.90
12025;DHT22;6073;53.230;10.444;2022-12-26T01:51:52;7.30;99.90
12025;DHT22;6073;53.230;10.444;2022-12-26T01:54:21;7.30;99.90
12025;DHT22;6073;53.230;10.444;2022-12-26T01:56:47;7.30;99.90
12025;DHT22;6073;53.230;10.444;2022-12-26T01:59:20;7.30;99.90
12025;DHT22;6073;53.230;10.444;2022-12-26T02:01:48;7.30;99.90
12025;DHT22;6073;53.230;10.444;2022-12-26T02:04:19;7.30;99.90
12025;DHT22;6073;53.230;10.444;2022-12-26T02:07:03;7.30;99.90
12025;DHT22;6073;53.230;10.444;2022-12-26T02:09:30;7.30;99.90
12025;DHT22;6073;53.230;10.444;2022-12-26T02:12:18;7.30;99.90
12025;DHT22;6073;53.230;10.444;2022-12-26T02:14:45;7.40;99.90
12025;DHT22;6073;53.230;10.444;2022-12-26T02:17:11;7.40;99.90
12025;DHT22;6073;53.230;10.444;2022-12-26T02:31:36;7.30;99.90
12025;DHT22;6073;53.230;10.444;2022-12-26T02:34:26;7.30;99.90
12025;DHT22;6073;53.230;10.444;2022-12-26T02:37:28;7.30;99.90
12025;DHT22;6073;53.230;10.444;2022-12-26T02:40:59;7.30;99.90
12025;DHT22;6073;53.230;10.444;2022-12-26T02:43:40;7.30;99.90
12025;DHT22;6073;53.230;10.444;2022-12-26T02:46:40;7.30;99.90
12025;DHT22;6073;53.230;10.444;2022-12-26T02:52:28;7.30;99.90
12025;DHT22;6073;53.230;10.444;2022-12-26T02:55:21;7.30;99.90
12025;DHT22;6073;53.230;10.444;2022-12-26T02:58:33;7.30;99.90
12025;DHT22;6073;53.230;10.444;2022-12-26T03:01:29;7.30;99.90
12025;DHT22;6073;53.230;10.444;2022-12-26T03:04:16;7.30;99.90
12025;DHT22;6073;53.230;10.444;2022-12-26T03:07:06;7.30;99.90
12025;DHT22;6073;53.230;10.444;2022-12-26T03:09:57;7.40;99.90
12025;DHT22;6073;53.230;10.444;2022-12-26T03:12:53;7.40;99.90
12025;DHT22;6073;53.230;10.444;2022-12-26T03:16:03;7.40;99.90
12025;DHT22;6073;53.230;10.444;2022-12-26T03:18:52;7.40;99.90
12025;DHT22;6073;53.230;10.444;2022-12-26T03:21:21;7.40;99.90
12025;DHT22;6073;53.230;10.444;2022-12-26T03:23:50;7.40;99.90
12025;DHT22;6073;53.230;10.444;2022-12-26T03:26:21;7.40;99.90
12025;DHT22;6073;53.230;10.444;2022-12-26T03:29:13;7.50;99.90
12025;DHT22;6073;53.230;10.444;2022-12-26T03:32:00;7.40;99.90
12025;DHT22;6073;53.230;10.444;2022-12-26T03:34:27;7.50;99.90
12025;DHT22;6073;53.230;10.444;2022-12-26T03:39:48;7.50;99.90
12025;DHT22;6073;53.230;10.444;2022-12-26T03:48:27;7.40;99.90
12025;DHT22;6073;53.230;10.444;2022-12-26T03:51:22;7.40;99.90
12025;DHT22;6073;53.230;10.444;2022-12-26T03:54:15;7.40;99.90
12025;DHT22;6073;53.230;10.444;2022-12-26T03:57:10;7.40;99.90
12025;DHT22;6073;53.230;10.444;2022-12-26T04:00:03;7.50;99.90
12025;DHT22;6073;53.230;10.444;2022-12-26T04:02:50;7.50;99.90
12025;DHT22;6073;53.230;10.444;2022-12-26T04:05:39;7.50;99.90
12025;DHT22;6073;53.230;10.444;2022-12-26T04:08:38;7.40;99.90
12025;DHT22;6073;53.230;10.444;2022-12-26T04:11:24;7.50;99.90
12025;DHT22;6073;53.230;10.444;2022-12-26T04:14:23;7.50;99.90
12025;DHT22;6073;53.230;10.444;2022-12-26T04:22:48;7.50;99.90
12025;DHT22;6073;53.230;10.444;2022-12-26T04:25:46;7.50;99.90
12025;DHT22;6073;53.230;10.444;2022-12-26T04:28:32;7.50;99.90
12025;DHT22;6073;53.230;10.444;2022-12-26T04:34:14;7.60;99.90
12025;DHT22;6073;53.230;10.444;2022-12-26T04:37:05;7.50;99.90
12025;DHT22;6073;53.230;10.444;2022-12-26T04:39:51;7.60;99.90
12025;DHT22;6073;53.230;10.444;2022-12-26T04:42:38;7.60;99.90
12025;DHT22;6073;53.230;10.444;2022-12-26T04:45:23;7.60;99.90
12025;DHT22;6073;53.230;10.444;2022-12-26T04:47:49;7.60;99.90
12025;DHT22;6073;53.230;10.444;2022-12-26T04:50:34;7.60;99.90
12025;DHT22;6073;53.230;10.444;2022-12-26T04:52:59;7.70;99.90
12025;DHT22;6073;53.230;10.444;2022-12-26T04:55:27;7.60;99.90
12025;DHT22;6073;53.230;10.444;2022-12-26T04:57:54;7.60;99.90
12025;DHT22;6073;53.230;10.444;2022-12-26T05:00:20;7.70;99.90
12025;DHT22;6073;53.230;10.444;2022-12-26T05:02:46;7.70;99.90
12025;DHT22;6073;53.230;10.444;2022-12-26T05:05:37;7.70;99.90
12025;DHT22;6073;53.230;10.444;2022-12-26T05:08:44;7.70;99.90
12025;DHT22;6073;53.230;10.444;2022-12-26T05:11:30;7.70;99.90
12025;DHT22;6073;53.230;10.444;2022-12-26T05:13:57;7.70;99.90
12025;DHT22;6073;53.230;10.444;2022-12-26T05:16:24;7.70;99.90
12025;DHT22;6073;53.230;10.444;2022-12-26T05:19:15;7.70;99.90
12025;DHT22;6073;53.230;10.444;2022-12-26T05:22:00;7.70;99.90
12025;DHT22;6073;53.230;10.444;2022-12-26T05:24:45;7.70;99.90
12025;DHT22;6073;53.230;10.444;2022-12-26T05:27:35;7.70;99.90
12025;DHT22;6073;53.230;10.444;2022-12-26T05:30:20;7.70;99.90
12025;DHT22;6073;53.230;10.444;2022-12-26T05:32:45;7.80;99.90
12025;DHT22;6073;53.230;10.444;2022-12-26T05:35:30;7.80;99.90
12025;DHT22;6073;53.230;10.444;2022-12-26T05:37:56;7.80;99.90
12025;DHT22;6073;53.230;10.444;2022-12-26T05:40:22;7.80;99.90
12025;DHT22;6073;53.230;10.444;2022-12-26T05:42:47;7.80;99.90
12025;DHT22;6073;53.230;10.444;2022-12-26T05:45:13;7.80;99.90
12025;DHT22;6073;53.230;10.444;2022-12-26T05:47:38;7.80;99.90
12025;DHT22;6073;53.230;10.444;2022-12-26T05:50:04;7.80;99.90
12025;DHT22;6073;53.230;10.444;2022-12-26T05:52:30;7.80;99.90
12025;DHT22;6073;53.230;10.444;2022-12-26T05:54:56;7.80;99.90
12025;DHT22;6073;53.230;10.444;2022-12-26T05:57:21;7.80;99.90
12025;DHT22;6073;53.230;10.444;2022-12-26T05:59:47;7.80;99.90
12025;DHT22;6073;53.230;10.444;2022-12-26T06:02:12;7.80;99.90
12025;DHT22;6073;53.230;10.444;2022-12-26T06:04:38;7.80;99.90
12025;DHT22;6073;53.230;10.444;2022-12-26T06:07:03;7.80;99.90
12025;DHT22;6073;53.230;10.444;2022-12-26T06:09:29;7.80;99.90
12025;DHT22;6073;53.230;10.444;2022-12-26T06:11:54;7.80;99.90
12025;DHT22;6073;53.230;10.444;2022-12-26T06:14:20;7.80;99.90
12025;DHT22;6073;53.230;10.444;2022-12-26T06:16:45;7.80;99.90
12025;DHT22;6073;53.230;10.444;2022-12-26T06:19:11;7.80;99.90
12025;DHT22;6073;53.230;10.444;2022-12-26T06:21:36;7.80;99.90
12025;DHT22;6073;53.230;10.444;2022-12-26T06:24:02;7.80;99.90
12025;DHT22;6073;53.230;10.444;2022-12-26T06:26:28;7.80;99.90
12025;DHT22;6073;53.230;10.444;2022-12-26T06:28:53;7.80;99.90
12025;DHT22;6073;53.230;10.444;2022-12-26T06:31:21;7.80;99.90
12025;DHT22;6073;53.230;10.444;2022-12-26T06:33:48;7.80;99.90
12025;DHT22;6073;53.230;10.444;2022-12-26T06:36:19;7.80;99.90
12025;DHT22;6073;53.230;10.444;2022-12-26T06:38:45;7.80;99.90
12025;DHT22;6073;53.230;10.444;2022-12-26T06:41:13;7.80;99.90
12025;DHT22;6073;53.230;10.444;2022-12-26T06:43:39;7.80;99.90
12025;DHT22;6073;53.230;10.444;2022-12-26T06:46:06;7.80;99.90
12025;DHT22;6073;53.230;10.444;2022-12-26T06:48:34;7.80;99.90
12025;DHT22;6073;53.230;10.444;2022-12-26T06:51:19;7.90;99.90
12025;DHT22;6073;53.230;10.444;2022-12-26T06:53:45;7.80;99.90
12025;DHT22;6073;53.230;10.444;2022-12-26T06:56:13;7.90;99.90
12025;DHT22;6073;53.230;10.444;2022-12-26T06:58:39;7.90;99.90
12025;DHT22;6073;53.230;10.444;2022-12-26T07:01:08;7.90;99.90
12025;DHT22;6073;53.230;10.444;2022-12-26T07:03:33;7.80;99.90
12025;DHT22;6073;53.230;10.444;2022-12-26T07:06:07;7.90;99.90
12025;DHT22;6073;53.230;10.444;2022-12-26T07:08:35;7.90;99.90
12025;DHT22;6073;53.230;10.444;2022-12-26T07:11:01;7.90;99.90
12025;DHT22;6073;53.230;10.444;2022-12-26T07:13:26;8.00;99.90
12025;DHT22;6073;53.230;10.444;2022-12-26T07:15:52;8.00;99.90
12025;DHT22;6073;53.230;10.444;2022-12-26T07:18:17;8.00;99.90
12025;DHT22;6073;53.230;10.444;2022-12-26T07:20:44;8.00;99.90
12025;DHT22;6073;53.230;10.444;2022-12-26T07:23:09;8.00;99.90
12025;DHT22;6073;53.230;10.444;2022-12-26T07:25:36;8.00;99.90
12025;DHT22;6073;53.230;10.444;2022-12-26T07:28:02;8.00;99.90
12025;DHT22;6073;53.230;10.444;2022-12-26T07:30:27;8.00;99.90
12025;DHT22;6073;53.230;10.444;2022-12-26T07:32:53;8.10;99.90
12025;DHT22;6073;53.230;10.444;2022-12-26T07:35:18;8.10;99.90
12025;DHT22;6073;53.230;10.444;2022-12-26T07:37:44;8.10;99.90
12025;DHT22;6073;53.230;10.444;2022-12-26T07:40:10;8.10;99.90
12025;DHT22;6073;53.230;10.444;2022-12-26T07:42:36;8.10;99.90
12025;DHT22;6073;53.230;10.444;2022-12-26T07:45:01;8.10;99.90
12025;DHT22;6073;53.230;10.444;2022-12-26T07:47:27;8.10;99.90
12025;DHT22;6073;53.230;10.444;2022-12-26T07:49:52;8.10;99.90
12025;DHT22;6073;53.230;10.444;2022-12-26T07:52:18;8.10;99.90
12025;DHT22;6073;53.230;10.444;2022-12-26T07:54:44;8.10;99.90
12025;DHT22;6073;53.230;10.444;2022-12-26T07:57:09;8.10;99.90
12025;DHT22;6073;53.230;10.444;2022-12-26T07:59:35;8.10;99.90
12025;DHT22;6073;53.230;10.444;2022-12-26T08:02:00;8.10;99.90
12025;DHT22;6073;53.230;10.444;2022-12-26T08:04:32;8.20;99.90
12025;DHT22;6073;53.230;10.444;2022-12-26T08:06:58;8.10;99.90
12025;DHT22;6073;53.230;10.444;2022-12-26T08:09:23;8.10;99.90
12025;DHT22;6073;53.230;10.444;2022-12-26T08:11:49;8.00;99.90
12025;DHT22;6073;53.230;10.444;2022-12-26T08:14:14;8.00;99.90
12025;DHT22;6073;53.230;10.444;2022-12-26T08:16:43;8.00;99.90
12025;DHT22;6073;53.230;10.444;2022-12-26T08:19:10;7.90;99.90
12025;DHT22;6073;53.230;10.444;2022-12-26T08:21:36;8.00;99.90
12025;DHT22;6073;53.230;10.444;2022-12-26T08:24:01;8.00;99.90
12025;DHT22;6073;53.230;10.444;2022-12-26T08:26:27;8.00;99.90
12025;DHT22;6073;53.230;10.444;2022-12-26T08:28:55;8.00;99.90
12025;DHT22;6073;53.230;10.444;2022-12-26T08:31:21;8.00;99.90
12025;DHT22;6073;53.230;10.444;2022-12-26T08:33:47;8.10;99.90
12025;DHT22;6073;53.230;10.444;2022-12-26T08:36:14;8.10;99.90
12025;DHT22;6073;53.230;10.444;2022-12-26T08:38:41;8.10;99.90
12025;DHT22;6073;53.230;10.444;2022-12-26T08:41:07;8.20;99.90
12025;DHT22;6073;53.230;10.444;2022-12-26T08:43:34;8.10;99.90
12025;DHT22;6073;53.230;10.444;2022-12-26T08:46:10;8.20;99.90
12025;DHT22;6073;53.230;10.444;2022-12-26T08:48:37;8.20;99.90
12025;DHT22;6073;53.230;10.444;2022-12-26T08:51:11;8.20;99.90
12025;DHT22;6073;53.230;10.444;2022-12-26T08:53:37;8.20;99.90
12025;DHT22;6073;53.230;10.444;2022-12-26T08:56:05;8.20;99.90
12025;DHT22;6073;53.230;10.444;2022-12-26T08:58:32;8.20;99.90
12025;DHT22;6073;53.230;10.444;2022-12-26T09:01:06;8.30;99.90
12025;DHT22;6073;53.230;10.444;2022-12-26T09:03:31;8.30;99.90
12025;DHT22;6073;53.230;10.444;2022-12-26T09:06:00;8.30;99.90
12025;DHT22;6073;53.230;10.444;2022-12-26T09:08:28;8.40;99.90
12025;DHT22;6073;53.230;10.444;2022-12-26T09:10:55;8.40;99.90
12025;DHT22;6073;53.230;10.444;2022-12-26T09:13:21;8.50;99.90
12025;DHT22;6073;53.230;10.444;2022-12-26T09:15:47;8.50;99.90
12025;DHT22;6073;53.230;10.444;2022-12-26T09:18:12;8.50;99.90
12025;DHT22;6073;53.230;10.444;2022-12-26T09:20:38;8.50;99.90
12025;DHT22;6073;53.230;10.444;2022-12-26T09:23:03;8.50;99.90
12025;DHT22;6073;53.230;10.444;2022-12-26T09:25:29;8.50;99.90
12025;DHT22;6073;53.230;10.444;2022-12-26T09:27:55;8.50;99.90
12025;DHT22;6073;53.230;10.444;2022-12-26T09:30:21;8.60;99.90
12025;DHT22;6073;53.230;10.444;2022-12-26T09:32:47;8.60;99.90
12025;DHT22;6073;53.230;10.444;2022-12-26T09:35:13;8.60;99.90
12025;DHT22;6073;53.230;10.444;2022-12-26T09:37:38;8.60;99.90
12025;DHT22;6073;53.230;10.444;2022-12-26T09:40:04;8.80;99.90
12025;DHT22;6073;53.230;10.444;2022-12-26T09:42:38;8.70;99.90
12025;DHT22;6073;53.230;10.444;2022-12-26T09:45:21;8.70;99.90
12025;DHT22;6073;53.230;10.444;2022-12-26T09:50:50;8.70;99.90
12025;DHT22;6073;53.230;10.444;2022-12-26T09:53:22;8.70;99.90
12025;DHT22;6073;53.230;10.444;2022-12-26T09:55:58;8.80;99.90
12025;DHT22;6073;53.230;10.444;2022-12-26T09:58:27;8.90;99.90
12025;DHT22;6073;53.230;10.444;2022-12-26T10:03:18;8.90;99.90
12025;DHT22;6073;53.230;10.444;2022-12-26T10:06:10;8.90;99.90
12025;DHT22;6073;53.230;10.444;2022-12-26T10:11:29;8.90;99.90
12025;DHT22;6073;53.230;10.444;2022-12-26T10:14:14;9.00;99.90
12025;DHT22;6073;53.230;10.444;2022-12-26T10:19:34;8.90;99.90
12025;DHT22;6073;53.230;10.444;2022-12-26T10:22:30;8.90;99.90
12025;DHT22;6073;53.230;10.444;2022-12-26T10:25:02;9.00;99.90
12025;DHT22;6073;53.230;10.444;2022-12-26T10:27:33;9.00;99.90
12025;DHT22;6073;53.230;10.444;2022-12-26T10:30:05;9.00;99.90
12025;DHT22;6073;53.230;10.444;2022-12-26T10:32:37;9.10;99.90
12025;DHT22;6073;53.230;10.444;2022-12-26T10:35:28;9.10;99.90
12025;DHT22;6073;53.230;10.444;2022-12-26T10:37:59;9.10;99.90
12025;DHT22;6073;53.230;10.444;2022-12-26T10:40:34;9.10;99.90
12025;DHT22;6073;53.230;10.444;2022-12-26T10:46:19;9.20;99.90
12025;DHT22;6073;53.230;10.444;2022-12-26T10:48:49;9.20;99.90
12025;DHT22;6073;53.230;10.444;2022-12-26T10:51:15;9.20;99.90
12025;DHT22;6073;53.230;10.444;2022-12-26T10:53:44;9.20;99.90
12025;DHT22;6073;53.230;10.444;2022-12-26T10:56:11;9.30;99.90
12025;DHT22;6073;53.230;10.444;2022-12-26T10:58:39;9.40;99.90
12025;DHT22;6073;53.230;10.444;2022-12-26T11:03:57;9.50;99.90
12025;DHT22;6073;53.230;10.444;2022-12-26T11:06:36;9.50;99.90
12025;DHT22;6073;53.230;10.444;2022-12-26T11:09:02;9.40;99.90
12025;DHT22;6073;53.230;10.444;2022-12-26T11:11:30;9.40;99.90
12025;DHT22;6073;53.230;10.444;2022-12-26T11:16:57;9.30;99.90
12025;DHT22;6073;53.230;10.444;2022-12-26T11:19:28;9.30;99.90
12025;DHT22;6073;53.230;10.444;2022-12-26T11:21:55;9.30;99.90
12025;DHT22;6073;53.230;10.444;2022-12-26T11:24:37;9.40;99.90
12025;DHT22;6073;53.230;10.444;2022-12-26T11:27:17;9.40;99.90
12025;DHT22;6073;53.230;10.444;2022-12-26T11:29:42;9.50;99.90
12025;DHT22;6073;53.230;10.444;2022-12-26T11:32:18;9.60;99.90
12025;DHT22;6073;53.230;10.444;2022-12-26T11:34:46;9.70;99.90
12025;DHT22;6073;53.230;10.444;2022-12-26T11:37:28;9.80;99.90
12025;DHT22;6073;53.230;10.444;2022-12-26T11:39:54;9.70;99.90
12025;DHT22;6073;53.230;10.444;2022-12-26T11:42:22;9.70;99.90
12025;DHT22;6073;53.230;10.444;2022-12-26T11:44:50;9.70;99.90
12025;DHT22;6073;53.230;10.444;2022-12-26T11:47:20;9.60;99.90
12025;DHT22;6073;53.230;10.444;2022-12-26T11:49:58;9.60;99.90
12025;DHT22;6073;53.230;10.444;2022-12-26T11:52:41;9.60;99.90
12025;DHT22;6073;53.230;10.444;2022-12-26T11:58:16;9.60;99.90
12025;DHT22;6073;53.230;10.444;2022-12-26T12:03:31;9.70;99.90
12025;DHT22;6073;53.230;10.444;2022-12-26T12:14:38;9.60;99.90
12025;DHT22;6073;53.230;10.444;2022-12-26T12:17:26;9.60;99.90
12025;DHT22;6073;53.230;10.444;2022-12-26T12:25:51;9.60;99.90
12025;DHT22;6073;53.230;10.444;2022-12-26T12:31:24;9.50;99.90
12025;DHT22;6073;53.230;10.444;2022-12-26T12:34:30;9.40;99.90
12025;DHT22;6073;53.230;10.444;2022-12-26T12:37:15;9.50;99.90
12025;DHT22;6073;53.230;10.444;2022-12-26T12:40:06;9.60;99.90
12025;DHT22;6073;53.230;10.444;2022-12-26T12:45:31;9.60;99.90
12025;DHT22;6073;53.230;10.444;2022-12-26T12:51:45;9.60;99.90
12025;DHT22;6073;53.230;10.444;2022-12-26T12:59:41;9.30;99.90
12025;DHT22;6073;53.230;10.444;2022-12-26T13:02:30;9.30;99.90
12025;DHT22;6073;53.230;10.444;2022-12-26T13:08:03;9.30;99.90
12025;DHT22;6073;53.230;10.444;2022-12-26T13:10:34;9.30;99.90
12025;DHT22;6073;53.230;10.444;2022-12-26T13:13:32;9.40;99.90
12025;DHT22;6073;53.230;10.444;2022-12-26T13:16:16;9.40;99.90
12025;DHT22;6073;53.230;10.444;2022-12-26T13:18:58;9.40;99.90
12025;DHT22;6073;53.230;10.444;2022-12-26T13:21:26;9.50;99.90
12025;DHT22;6073;53.230;10.444;2022-12-26T13:24:21;9.40;99.90
12025;DHT22;6073;53.230;10.444;2022-12-26T13:27:00;9.50;99.90
12025;DHT22;6073;53.230;10.444;2022-12-26T13:29:36;9.40;99.90
12025;DHT22;6073;53.230;10.444;2022-12-26T13:32:03;9.50;99.90
12025;DHT22;6073;53.230;10.444;2022-12-26T13:34:30;9.60;99.90
12025;DHT22;6073;53.230;10.444;2022-12-26T13:36:58;9.60;99.90
12025;DHT22;6073;53.230;10.444;2022-12-26T13:41:57;9.50;99.90
12025;DHT22;6073;53.230;10.444;2022-12-26T13:44:42;9.40;99.90
12025;DHT22;6073;53.230;10.444;2022-12-26T13:47:46;9.40;99.90
12025;DHT22;6073;53.230;10.444;2022-12-26T13:50:57;9.50;99.90
12025;DHT22;6073;53.230;10.444;2022-12-26T13:53:39;9.40;99.90
12025;DHT22;6073;53.230;10.444;2022-12-26T13:58:52;9.40;99.90
12025;DHT22;6073;53.230;10.444;2022-12-26T14:12:59;9.40;99.90
12025;DHT22;6073;53.230;10.444;2022-12-26T14:23:59;9.20;99.90
12025;DHT22;6073;53.230;10.444;2022-12-26T14:29:26;9.20;99.90
12025;DHT22;6073;53.230;10.444;2022-12-26T14:40:32;8.80;99.90
12025;DHT22;6073;53.230;10.444;2022-12-26T14:43:00;8.70;99.90
12025;DHT22;6073;53.230;10.444;2022-12-26T14:45:37;8.60;99.90
12025;DHT22;6073;53.230;10.444;2022-12-26T14:50:49;8.30;99.90
12025;DHT22;6073;53.230;10.444;2022-12-26T14:53:31;8.20;99.90
12025;DHT22;6073;53.230;10.444;2022-12-26T15:19:45;7.60;99.90
12025;DHT22;6073;53.230;10.444;2022-12-26T15:25:13;7.60;99.90
12025;DHT22;6073;53.230;10.444;2022-12-26T15:30:56;7.40;99.90
12025;DHT22;6073;53.230;10.444;2022-12-26T15:36:21;7.10;99.90
12025;DHT22;6073;53.230;10.444;2022-12-26T15:38:57;7.00;99.90
12025;DHT22;6073;53.230;10.444;2022-12-26T15:41:38;6.80;99.90
12025;DHT22;6073;53.230;10.444;2022-12-26T15:44:23;6.80;99.90
12025;DHT22;6073;53.230;10.444;2022-12-26T15:46:56;6.60;99.90
12025;DHT22;6073;53.230;10.444;2022-12-26T15:49:44;6.50;99.90
12025;DHT22;6073;53.230;10.444;2022-12-26T15:52:23;6.50;99.90
12025;DHT22;6073;53.230;10.444;2022-12-26T15:58:11;6.50;99.90
12025;DHT22;6073;53.230;10.444;2022-12-26T16:00:47;6.40;99.90
12025;DHT22;6073;53.230;10.444;2022-12-26T16:03:35;6.40;99.90
12025;DHT22;6073;53.230;10.444;2022-12-26T16:12:24;6.30;99.90
12025;DHT22;6073;53.230;10.444;2022-12-26T16:17:36;6.10;99.90
12025;DHT22;6073;53.230;10.444;2022-12-26T16:20:20;6.10;99.90
12025;DHT22;6073;53.230;10.444;2022-12-26T16:23:17;6.00;99.90
12025;DHT22;6073;53.230;10.444;2022-12-26T16:25:51;5.90;99.90
12025;DHT22;6073;53.230;10.444;2022-12-26T16:28:44;5.80;99.90
12025;DHT22;6073;53.230;10.444;2022-12-26T16:31:20;5.80;99.90
12025;DHT22;6073;53.230;10.444;2022-12-26T16:33:49;5.70;99.90
12025;DHT22;6073;53.230;10.444;2022-12-26T16:36:20;5.70;99.90
12025;DHT22;6073;53.230;10.444;2022-12-26T16:38:46;5.60;99.90
12025;DHT22;6073;53.230;10.444;2022-12-26T16:41:30;5.50;99.90
12025;DHT22;6073;53.230;10.444;2022-12-26T16:43:57;5.40;99.90
12025;DHT22;6073;53.230;10.444;2022-12-26T16:46:27;5.20;99.90
12025;DHT22;6073;53.230;10.444;2022-12-26T16:48:59;5.20;99.90
12025;DHT22;6073;53.230;10.444;2022-12-26T16:51:39;5.10;99.90
12025;DHT22;6073;53.230;10.444;2022-12-26T16:59:48;5.00;99.90
12025;DHT22;6073;53.230;10.444;2022-12-26T17:05:06;4.90;99.90
12025;DHT22;6073;53.230;10.444;2022-12-26T17:07:43;4.80;99.90
12025;DHT22;6073;53.230;10.444;2022-12-26T17:10:37;4.70;99.90
12025;DHT22;6073;53.230;10.444;2022-12-26T17:13:05;4.70;99.90
12025;DHT22;6073;53.230;10.444;2022-12-26T17:15:35;4.60;99.90
12025;DHT22;6073;53.230;10.444;2022-12-26T17:18:28;4.50;99.90
12025;DHT22;6073;53.230;10.444;2022-12-26T17:20:54;4.60;99.90
12025;DHT22;6073;53.230;10.444;2022-12-26T17:23:37;4.50;99.90
12025;DHT22;6073;53.230;10.444;2022-12-26T17:26:17;4.60;99.90
12025;DHT22;6073;53.230;10.444;2022-12-26T17:28:44;4.60;99.90
12025;DHT22;6073;53.230;10.444;2022-12-26T17:31:36;4.50;99.90
12025;DHT22;6073;53.230;10.444;2022-12-26T17:34:25;4.50;99.90
12025;DHT22;6073;53.230;10.444;2022-12-26T17:36:52;4.50;99.90
12025;DHT22;6073;53.230;10.444;2022-12-26T17:39:23;4.60;99.90
12025;DHT22;6073;53.230;10.444;2022-12-26T17:41:54;4.60;99.90
12025;DHT22;6073;53.230;10.444;2022-12-26T17:47:24;4.60;99.90
12025;DHT22;6073;53.230;10.444;2022-12-26T17:49:52;4.60;99.90
12025;DHT22;6073;53.230;10.444;2022-12-26T17:52:26;4.70;99.90
12025;DHT22;6073;53.230;10.444;2022-12-26T17:54:53;4.70;99.90
12025;DHT22;6073;53.230;10.444;2022-12-26T17:57:22;4.70;99.90
12025;DHT22;6073;53.230;10.444;2022-12-26T17:59:50;4.70;99.90
12025;DHT22;6073;53.230;10.444;2022-12-26T18:02:18;4.70;99.90
12025;DHT22;6073;53.230;10.444;2022-12-26T18:04:44;4.70;99.90
12025;DHT22;6073;53.230;10.444;2022-12-26T18:07:17;4.70;99.90
12025;DHT22;6073;53.230;10.444;2022-12-26T18:09:43;4.50;99.90
12025;DHT22;6073;53.230;10.444;2022-12-26T18:12:14;4.50;99.90
12025;DHT22;6073;53.230;10.444;2022-12-26T18:14:40;4.50;99.90
12025;DHT22;6073;53.230;10.444;2022-12-26T18:17:06;4.50;99.90
12025;DHT22;6073;53.230;10.444;2022-12-26T18:19:32;4.50;99.90
12025;DHT22;6073;53.230;10.444;2022-12-26T18:21:59;4.50;99.90
12025;DHT22;6073;53.230;10.444;2022-12-26T18:24:25;4.50;99.90
12025;DHT22;6073;53.230;10.444;2022-12-26T18:26:51;4.60;99.90
12025;DHT22;6073;53.230;10.444;2022-12-26T18:29:17;4.60;99.90
12025;DHT22;6073;53.230;10.444;2022-12-26T18:31:42;4.60;99.90
12025;DHT22;6073;53.230;10.444;2022-12-26T18:34:08;4.70;99.90
12025;DHT22;6073;53.230;10.444;2022-12-26T18:36:35;4.70;99.90
12025;DHT22;6073;53.230;10.444;2022-12-26T18:39:03;4.70;99.90
12025;DHT22;6073;53.230;10.444;2022-12-26T18:41:29;4.60;99.90
12025;DHT22;6073;53.230;10.444;2022-12-26T18:43:54;4.60;99.90
12025;DHT22;6073;53.230;10.444;2022-12-26T18:46:24;4.50;99.90
12025;DHT22;6073;53.230;10.444;2022-12-26T18:48:50;4.50;99.90
12025;DHT22;6073;53.230;10.444;2022-12-26T18:51:21;4.40;99.90
12025;DHT22;6073;53.230;10.444;2022-12-26T18:53:47;4.30;99.90
12025;DHT22;6073;53.230;10.444;2022-12-26T18:56:14;4.30;99.90
12025;DHT22;6073;53.230;10.444;2022-12-26T18:58:41;4.30;99.90
12025;DHT22;6073;53.230;10.444;2022-12-26T19:01:08;4.30;99.90
12025;DHT22;6073;53.230;10.444;2022-12-26T19:03:35;4.20;99.90
12025;DHT22;6073;53.230;10.444;2022-12-26T19:06:00;4.20;99.90
12025;DHT22;6073;53.230;10.444;2022-12-26T19:08:26;4.10;99.90
12025;DHT22;6073;53.230;10.444;2022-12-26T19:10:51;4.10;99.90
12025;DHT22;6073;53.230;10.444;2022-12-26T19:13:17;4.10;99.90
12025;DHT22;6073;53.230;10.444;2022-12-26T19:15:46;4.10;99.90
12025;DHT22;6073;53.230;10.444;2022-12-26T19:18:12;4.10;99.90
12025;DHT22;6073;53.230;10.444;2022-12-26T19:20:38;4.10;99.90
12025;DHT22;6073;53.230;10.444;2022-12-26T19:23:03;4.00;99.90
12025;DHT22;6073;53.230;10.444;2022-12-26T19:25:29;3.90;99.90
12025;DHT22;6073;53.230;10.444;2022-12-26T19:27:54;3.90;99.90